sensor_id;sensor_type;location;lat;lon;timestamp;P1;durP1;ratioP1;P2;durP2;ratioP2
34234;SDS011;20500;49.856;20.290;2024-03-23T00:56:58;41.00;;;33.00;;
34234;SDS011;20500;49.856;20.290;2024-03-23T01:00:03;43.00;;;33.10;;
34234;SDS011;20500;49.856;20.290;2024-03-23T01:03:12;42.30;;;31.50;;
34234;SDS011;20500;49.856;20.290;2024-03-23T01:06:17;38.90;;;31.00;;
34234;SDS011;20500;49.856;20.290;2024-03-23T01:09:22;41.40;;;30.70;;
34234;SDS011;20500;49.856;20.290;2024-03-23T01:12:27;33.10;;;25.80;;
34234;SDS011;20500;49.856;20.290;2024-03-23T01:15:32;30.30;;;21.40;;
34234;SDS011;20500;49.856;20.290;2024-03-23T01:18:37;26.40;;;18.20;;
34234;SDS011;20500;49.856;20.290;2024-03-23T01:21:42;23.50;;;14.80;;
34234;SDS011;20500;49.856;20.290;2024-03-23T01:24:47;16.60;;;10.70;;
34234;SDS011;20500;49.856;20.290;2024-03-23T01:27:52;20.00;;;13.00;;
34234;SDS011;20500;49.856;20.290;2024-03-23T01:30:57;28.60;;;20.70;;
34234;SDS011;20500;49.856;20.290;2024-03-23T01:34:02;26.00;;;18.20;;
34234;SDS011;20500;49.856;20.290;2024-03-23T01:37:07;20.90;;;13.00;;
34234;SDS011;20500;49.856;20.290;2024-03-23T01:40:13;18.50;;;11.20;;
34234;SDS011;20500;49.856;20.290;2024-03-23T01:43:19;18.50;;;11.90;;
34234;SDS011;20500;49.856;20.290;2024-03-23T01:46:25;26.60;;;18.60;;
34234;SDS011;20500;49.856;20.290;2024-03-23T01:49:30;26.60;;;19.40;;
34234;SDS011;20500;49.856;20.290;2024-03-23T01:52:35;23.70;;;16.00;;
34234;SDS011;20500;49.856;20.290;2024-03-23T01:55:40;16.40;;;9.90;;
34234;SDS011;20500;49.856;20.290;2024-03-23T01:58:45;17.30;;;9.90;;
34234;SDS011;20500;49.856;20.290;2024-03-23T02:01:50;15.70;;;8.80;;
34234;SDS011;20500;49.856;20.290;2024-03-23T02:04:55;17.80;;;9.90;;
34234;SDS011;20500;49.856;20.290;2024-03-23T02:08:00;16.60;;;9.70;;
34234;SDS011;20500;49.856;20.290;2024-03-23T02:11:05;16.90;;;10.10;;
34234;SDS011;20500;49.856;20.290;2024-03-23T02:14:10;14.10;;;7.90;;
34234;SDS011;20500;49.856;20.290;2024-03-23T02:17:15;15.90;;;9.40;;
34234;SDS011;20500;49.856;20.290;2024-03-23T02:20:20;17.00;;;10.20;;
34234;SDS011;20500;49.856;20.290;2024-03-23T02:23:25;16.60;;;8.90;;
34234;SDS011;20500;49.856;20.290;2024-03-23T02:26:31;14.20;;;7.90;;
34234;SDS011;20500;49.856;20.290;2024-03-23T02:29:36;13.60;;;7.60;;
34234;SDS011;20500;49.856;20.290;2024-03-23T02:32:41;18.10;;;11.60;;
34234;SDS011;20500;49.856;20.290;2024-03-23T02:35:46;15.70;;;8.60;;
34234;SDS011;20500;49.856;20.290;2024-03-23T02:38:52;13.30;;;7.00;;
34234;SDS011;20500;49.856;20.290;2024-03-23T02:41:57;14.90;;;8.00;;
34234;SDS011;20500;49.856;20.290;2024-03-23T02:45:02;13.00;;;6.70;;
34234;SDS011;20500;49.856;20.290;2024-03-23T02:48:08;15.70;;;9.40;;
34234;SDS011;20500;49.856;20.290;2024-03-23T02:51:13;12.70;;;6.60;;
34234;SDS011;20500;49.856;20.290;2024-03-23T02:54:18;17.90;;;11.70;;
34234;SDS011;20500;49.856;20.290;2024-03-23T02:57:23;13.70;;;7.40;;
34234;SDS011;20500;49.856;20.290;2024-03-23T03:00:29;14.40;;;8.30;;
34234;SDS011;20500;49.856;20.290;2024-03-23T03:03:34;14.40;;;8.20;;
34234;SDS011;20500;49.856;20.290;2024-03-23T03:06:40;15.00;;;8.70;;
34234;SDS011;20500;49.856;20.290;2024-03-23T03:09:45;16.50;;;10.00;;
34234;SDS011;20500;49.856;20.290;2024-03-23T03:12:50;13.60;;;6.60;;
34234;SDS011;20500;49.856;20.290;2024-03-23T03:15:55;15.20;;;8.50;;
34234;SDS011;20500;49.856;20.290;2024-03-23T03:19:01;14.80;;;8.30;;
34234;SDS011;20500;49.856;20.290;2024-03-23T03:22:06;14.10;;;6.60;;
34234;SDS011;20500;49.856;20.290;2024-03-23T03:25:11;12.90;;;6.50;;
34234;SDS011;20500;49.856;20.290;2024-03-23T03:28:16;13.50;;;5.80;;
34234;SDS011;20500;49.856;20.290;2024-03-23T03:31:22;13.30;;;6.60;;
34234;SDS011;20500;49.856;20.290;2024-03-23T03:34:27;13.20;;;6.20;;
34234;SDS011;20500;49.856;20.290;2024-03-23T03:37:32;13.90;;;5.60;;
34234;SDS011;20500;49.856;20.290;2024-03-23T03:40:37;12.30;;;5.40;;
34234;SDS011;20500;49.856;20.290;2024-03-23T03:43:42;12.00;;;5.20;;
34234;SDS011;20500;49.856;20.290;2024-03-23T03:46:47;12.50;;;6.00;;
34234;SDS011;20500;49.856;20.290;2024-03-23T03:49:52;10.80;;;5.20;;
34234;SDS011;20500;49.856;20.290;2024-03-23T03:52:57;12.20;;;5.60;;
34234;SDS011;20500;49.856;20.290;2024-03-23T03:56:03;10.40;;;4.90;;
34234;SDS011;20500;49.856;20.290;2024-03-23T03:59:09;10.30;;;4.90;;
34234;SDS011;20500;49.856;20.290;2024-03-23T04:02:14;12.40;;;5.50;;
34234;SDS011;20500;49.856;20.290;2024-03-23T04:05:19;10.20;;;5.00;;
34234;SDS011;20500;49.856;20.290;2024-03-23T04:08:24;12.60;;;6.30;;
34234;SDS011;20500;49.856;20.290;2024-03-23T04:11:29;13.00;;;6.30;;
34234;SDS011;20500;49.856;20.290;2024-03-23T04:14:34;14.40;;;7.30;;
34234;SDS011;20500;49.856;20.290;2024-03-23T04:17:39;13.50;;;7.30;;
34234;SDS011;20500;49.856;20.290;2024-03-23T04:20:45;12.40;;;6.60;;
34234;SDS011;20500;49.856;20.290;2024-03-23T04:23:50;14.20;;;6.70;;
34234;SDS011;20500;49.856;20.290;2024-03-23T04:26:55;10.90;;;5.70;;
34234;SDS011;20500;49.856;20.290;2024-03-23T04:30:00;12.20;;;5.90;;
34234;SDS011;20500;49.856;20.290;2024-03-23T04:33:12;11.20;;;5.60;;
34234;SDS011;20500;49.856;20.290;2024-03-23T04:36:17;12.00;;;5.70;;
34234;SDS011;20500;49.856;20.290;2024-03-23T04:39:22;13.80;;;6.20;;
34234;SDS011;20500;49.856;20.290;2024-03-23T04:42:27;13.30;;;5.90;;
34234;SDS011;20500;49.856;20.290;2024-03-23T04:45:32;13.60;;;5.70;;
34234;SDS011;20500;49.856;20.290;2024-03-23T04:48:37;12.00;;;5.40;;
34234;SDS011;20500;49.856;20.290;2024-03-23T04:51:42;15.20;;;5.40;;
34234;SDS011;20500;49.856;20.290;2024-03-23T04:57:52;11.00;;;5.10;;
34234;SDS011;20500;49.856;20.290;2024-03-23T05:00:57;12.30;;;5.30;;
34234;SDS011;20500;49.856;20.290;2024-03-23T05:04:02;10.10;;;4.60;;
34234;SDS011;20500;49.856;20.290;2024-03-23T05:07:07;11.00;;;5.40;;
34234;SDS011;20500;49.856;20.290;2024-03-23T05:10:13;11.60;;;5.50;;
34234;SDS011;20500;49.856;20.290;2024-03-23T05:13:19;12.70;;;5.70;;
34234;SDS011;20500;49.856;20.290;2024-03-23T05:16:24;11.40;;;5.30;;
34234;SDS011;20500;49.856;20.290;2024-03-23T05:19:29;11.00;;;4.80;;
34234;SDS011;20500;49.856;20.290;2024-03-23T05:22:34;12.60;;;5.70;;
34234;SDS011;20500;49.856;20.290;2024-03-23T05:25:39;13.10;;;5.70;;
34234;SDS011;20500;49.856;20.290;2024-03-23T05:28:44;10.80;;;5.30;;
34234;SDS011;20500;49.856;20.290;2024-03-23T05:31:51;12.80;;;6.50;;
34234;SDS011;20500;49.856;20.290;2024-03-23T05:34:59;13.70;;;5.70;;
34234;SDS011;20500;49.856;20.290;2024-03-23T05:38:04;11.80;;;5.60;;
34234;SDS011;20500;49.856;20.290;2024-03-23T05:41:09;11.20;;;5.70;;
34234;SDS011;20500;49.856;20.290;2024-03-23T05:44:14;11.90;;;5.60;;
34234;SDS011;20500;49.856;20.290;2024-03-23T05:47:18;12.00;;;5.90;;
34234;SDS011;20500;49.856;20.290;2024-03-23T05:50:23;12.20;;;5.80;;
34234;SDS011;20500;49.856;20.290;2024-03-23T05:53:28;11.40;;;5.70;;
34234;SDS011;20500;49.856;20.290;2024-03-23T05:59:38;11.30;;;5.50;;
34234;SDS011;20500;49.856;20.290;2024-03-23T06:02:43;15.50;;;7.40;;
34234;SDS011;20500;49.856;20.290;2024-03-23T06:05:48;14.40;;;6.60;;
34234;SDS011;20500;49.856;20.290;2024-03-23T06:08:53;12.70;;;6.20;;
34234;SDS011;20500;49.856;20.290;2024-03-23T06:11:58;13.20;;;6.90;;
34234;SDS011;20500;49.856;20.290;2024-03-23T06:15:03;15.50;;;6.80;;
34234;SDS011;20500;49.856;20.290;2024-03-23T06:18:16;12.50;;;6.10;;
34234;SDS011;20500;49.856;20.290;2024-03-23T06:21:21;11.30;;;6.00;;
34234;SDS011;20500;49.856;20.290;2024-03-23T06:24:26;14.30;;;6.20;;
34234;SDS011;20500;49.856;20.290;2024-03-23T06:27:31;12.90;;;7.00;;
34234;SDS011;20500;49.856;20.290;2024-03-23T06:30:36;19.20;;;8.00;;
34234;SDS011;20500;49.856;20.290;2024-03-23T06:33:41;15.40;;;9.00;;
34234;SDS011;20500;49.856;20.290;2024-03-23T06:36:47;13.90;;;7.00;;
34234;SDS011;20500;49.856;20.290;2024-03-23T06:42:56;16.60;;;8.80;;
34234;SDS011;20500;49.856;20.290;2024-03-23T06:46:01;19.10;;;12.10;;
34234;SDS011;20500;49.856;20.290;2024-03-23T06:49:07;17.00;;;9.40;;
34234;SDS011;20500;49.856;20.290;2024-03-23T06:52:12;20.40;;;12.70;;
34234;SDS011;20500;49.856;20.290;2024-03-23T06:55:17;20.40;;;12.90;;
34234;SDS011;20500;49.856;20.290;2024-03-23T06:58:23;20.60;;;14.10;;
34234;SDS011;20500;49.856;20.290;2024-03-23T07:01:28;22.20;;;15.90;;
34234;SDS011;20500;49.856;20.290;2024-03-23T07:04:33;21.80;;;13.70;;
34234;SDS011;20500;49.856;20.290;2024-03-23T07:07:39;21.80;;;14.00;;
34234;SDS011;20500;49.856;20.290;2024-03-23T07:10:44;20.10;;;13.80;;
34234;SDS011;20500;49.856;20.290;2024-03-23T07:13:50;19.90;;;11.40;;
34234;SDS011;20500;49.856;20.290;2024-03-23T07:16:57;16.90;;;10.40;;
34234;SDS011;20500;49.856;20.290;2024-03-23T07:20:02;13.60;;;7.40;;
34234;SDS011;20500;49.856;20.290;2024-03-23T07:23:13;13.00;;;6.90;;
34234;SDS011;20500;49.856;20.290;2024-03-23T07:26:18;15.50;;;9.00;;
34234;SDS011;20500;49.856;20.290;2024-03-23T07:29:23;19.10;;;11.20;;
34234;SDS011;20500;49.856;20.290;2024-03-23T07:32:28;19.30;;;11.50;;
34234;SDS011;20500;49.856;20.290;2024-03-23T07:35:33;19.30;;;11.80;;
34234;SDS011;20500;49.856;20.290;2024-03-23T07:38:39;16.70;;;11.10;;
34234;SDS011;20500;49.856;20.290;2024-03-23T07:41:54;18.20;;;11.60;;
34234;SDS011;20500;49.856;20.290;2024-03-23T07:44:59;17.30;;;10.60;;
34234;SDS011;20500;49.856;20.290;2024-03-23T07:48:07;16.10;;;10.50;;
34234;SDS011;20500;49.856;20.290;2024-03-23T07:51:15;16.50;;;9.50;;
34234;SDS011;20500;49.856;20.290;2024-03-23T07:54:21;14.00;;;8.20;;
34234;SDS011;20500;49.856;20.290;2024-03-23T07:57:26;15.10;;;8.70;;
34234;SDS011;20500;49.856;20.290;2024-03-23T08:00:31;15.90;;;7.90;;
34234;SDS011;20500;49.856;20.290;2024-03-23T08:03:36;17.30;;;7.60;;
34234;SDS011;20500;49.856;20.290;2024-03-23T08:06:42;13.20;;;6.80;;
34234;SDS011;20500;49.856;20.290;2024-03-23T08:09:51;12.70;;;6.10;;
34234;SDS011;20500;49.856;20.290;2024-03-23T08:12:56;12.60;;;5.90;;
34234;SDS011;20500;49.856;20.290;2024-03-23T08:16:02;12.00;;;5.30;;
34234;SDS011;20500;49.856;20.290;2024-03-23T08:19:08;12.10;;;5.30;;
34234;SDS011;20500;49.856;20.290;2024-03-23T08:22:13;11.20;;;5.20;;
34234;SDS011;20500;49.856;20.290;2024-03-23T08:25:18;11.20;;;5.00;;
34234;SDS011;20500;49.856;20.290;2024-03-23T08:28:23;11.30;;;4.80;;
34234;SDS011;20500;49.856;20.290;2024-03-23T08:31:28;9.80;;;4.40;;
34234;SDS011;20500;49.856;20.290;2024-03-23T08:34:33;10.50;;;4.80;;
34234;SDS011;20500;49.856;20.290;2024-03-23T08:37:38;11.90;;;5.60;;
34234;SDS011;20500;49.856;20.290;2024-03-23T08:40:43;11.50;;;4.80;;
34234;SDS011;20500;49.856;20.290;2024-03-23T08:43:48;12.20;;;4.80;;
34234;SDS011;20500;49.856;20.290;2024-03-23T08:46:56;10.90;;;4.30;;
34234;SDS011;20500;49.856;20.290;2024-03-23T08:50:01;11.20;;;5.30;;
34234;SDS011;20500;49.856;20.290;2024-03-23T08:53:06;10.90;;;5.10;;
34234;SDS011;20500;49.856;20.290;2024-03-23T08:56:11;10.80;;;4.80;;
34234;SDS011;20500;49.856;20.290;2024-03-23T08:59:16;10.20;;;4.40;;
34234;SDS011;20500;49.856;20.290;2024-03-23T09:05:26;9.80;;;4.60;;
34234;SDS011;20500;49.856;20.290;2024-03-23T09:08:33;9.30;;;3.80;;
34234;SDS011;20500;49.856;20.290;2024-03-23T09:14:42;9.20;;;3.90;;
34234;SDS011;20500;49.856;20.290;2024-03-23T09:17:47;9.40;;;4.20;;
34234;SDS011;20500;49.856;20.290;2024-03-23T09:20:52;9.80;;;3.50;;
34234;SDS011;20500;49.856;20.290;2024-03-23T09:23:57;9.80;;;3.90;;
34234;SDS011;20500;49.856;20.290;2024-03-23T09:27:02;10.10;;;4.20;;
34234;SDS011;20500;49.856;20.290;2024-03-23T09:30:09;11.60;;;4.00;;
34234;SDS011;20500;49.856;20.290;2024-03-23T09:33:15;9.40;;;3.60;;
34234;SDS011;20500;49.856;20.290;2024-03-23T09:36:21;8.60;;;3.60;;
34234;SDS011;20500;49.856;20.290;2024-03-23T09:39:25;9.70;;;3.90;;
34234;SDS011;20500;49.856;20.290;2024-03-23T09:42:31;10.60;;;3.80;;
34234;SDS011;20500;49.856;20.290;2024-03-23T09:45:38;8.70;;;3.90;;
34234;SDS011;20500;49.856;20.290;2024-03-23T09:48:44;11.10;;;4.80;;
34234;SDS011;20500;49.856;20.290;2024-03-23T09:51:51;9.30;;;4.10;;
34234;SDS011;20500;49.856;20.290;2024-03-23T09:54:57;9.70;;;3.60;;
34234;SDS011;20500;49.856;20.290;2024-03-23T09:58:02;9.40;;;3.70;;
34234;SDS011;20500;49.856;20.290;2024-03-23T10:01:08;9.00;;;3.20;;
34234;SDS011;20500;49.856;20.290;2024-03-23T10:07:42;8.40;;;3.20;;
34234;SDS011;20500;49.856;20.290;2024-03-23T10:10:47;9.40;;;3.60;;
34234;SDS011;20500;49.856;20.290;2024-03-23T10:13:52;7.90;;;2.80;;
34234;SDS011;20500;49.856;20.290;2024-03-23T10:17:11;7.40;;;3.20;;
34234;SDS011;20500;49.856;20.290;2024-03-23T10:20:20;7.70;;;3.20;;
34234;SDS011;20500;49.856;20.290;2024-03-23T10:23:26;8.00;;;3.10;;
34234;SDS011;20500;49.856;20.290;2024-03-23T10:26:31;8.60;;;3.10;;
34234;SDS011;20500;49.856;20.290;2024-03-23T10:29:36;7.60;;;2.90;;
34234;SDS011;20500;49.856;20.290;2024-03-23T10:32:41;7.50;;;2.90;;
34234;SDS011;20500;49.856;20.290;2024-03-23T10:35:46;8.30;;;3.10;;
34234;SDS011;20500;49.856;20.290;2024-03-23T10:38:53;9.60;;;4.30;;
34234;SDS011;20500;49.856;20.290;2024-03-23T10:42:01;10.20;;;3.90;;
34234;SDS011;20500;49.856;20.290;2024-03-23T10:45:08;8.80;;;3.90;;
34234;SDS011;20500;49.856;20.290;2024-03-23T10:48:13;10.90;;;3.80;;
34234;SDS011;20500;49.856;20.290;2024-03-23T10:54:23;8.70;;;3.40;;
34234;SDS011;20500;49.856;20.290;2024-03-23T10:57:30;9.40;;;3.80;;
34234;SDS011;20500;49.856;20.290;2024-03-23T11:00:38;10.20;;;4.50;;
34234;SDS011;20500;49.856;20.290;2024-03-23T11:03:45;10.70;;;4.70;;
34234;SDS011;20500;49.856;20.290;2024-03-23T11:06:50;10.30;;;4.30;;
34234;SDS011;20500;49.856;20.290;2024-03-23T11:09:55;9.40;;;3.60;;
34234;SDS011;20500;49.856;20.290;2024-03-23T11:13:02;9.80;;;4.10;;
34234;SDS011;20500;49.856;20.290;2024-03-23T11:16:28;7.40;;;3.10;;
34234;SDS011;20500;49.856;20.290;2024-03-23T11:19:35;9.20;;;3.50;;
34234;SDS011;20500;49.856;20.290;2024-03-23T11:22:41;9.60;;;4.10;;
34234;SDS011;20500;49.856;20.290;2024-03-23T11:25:49;9.80;;;3.80;;
34234;SDS011;20500;49.856;20.290;2024-03-23T11:32:16;7.80;;;2.70;;
34234;SDS011;20500;49.856;20.290;2024-03-23T11:35:28;8.40;;;3.20;;
34234;SDS011;20500;49.856;20.290;2024-03-23T11:38:37;9.00;;;3.00;;
34234;SDS011;20500;49.856;20.290;2024-03-23T11:41:49;7.60;;;2.90;;
34234;SDS011;20500;49.856;20.290;2024-03-23T11:44:54;11.30;;;3.60;;
34234;SDS011;20500;49.856;20.290;2024-03-23T11:48:06;8.70;;;3.60;;
34234;SDS011;20500;49.856;20.290;2024-03-23T11:51:12;9.10;;;3.30;;
34234;SDS011;20500;49.856;20.290;2024-03-23T11:54:19;8.50;;;3.20;;
34234;SDS011;20500;49.856;20.290;2024-03-23T11:57:25;8.40;;;2.90;;
34234;SDS011;20500;49.856;20.290;2024-03-23T12:00:30;9.50;;;3.10;;
34234;SDS011;20500;49.856;20.290;2024-03-23T12:03:35;10.20;;;3.00;;
34234;SDS011;20500;49.856;20.290;2024-03-23T12:06:40;8.80;;;3.40;;
34234;SDS011;20500;49.856;20.290;2024-03-23T12:09:46;7.70;;;3.00;;
34234;SDS011;20500;49.856;20.290;2024-03-23T12:13:05;9.50;;;2.60;;
34234;SDS011;20500;49.856;20.290;2024-03-23T12:16:11;8.90;;;2.50;;
34234;SDS011;20500;49.856;20.290;2024-03-23T12:19:17;9.40;;;3.10;;
34234;SDS011;20500;49.856;20.290;2024-03-23T12:22:22;7.80;;;2.80;;
34234;SDS011;20500;49.856;20.290;2024-03-23T12:25:28;7.30;;;2.70;;
34234;SDS011;20500;49.856;20.290;2024-03-23T12:28:33;9.10;;;2.90;;
34234;SDS011;20500;49.856;20.290;2024-03-23T12:31:38;9.00;;;3.20;;
34234;SDS011;20500;49.856;20.290;2024-03-23T12:34:43;9.30;;;2.50;;
34234;SDS011;20500;49.856;20.290;2024-03-23T12:37:49;7.30;;;2.50;;
34234;SDS011;20500;49.856;20.290;2024-03-23T12:40:54;6.70;;;2.50;;
34234;SDS011;20500;49.856;20.290;2024-03-23T12:43:59;6.30;;;2.70;;
34234;SDS011;20500;49.856;20.290;2024-03-23T12:47:04;7.70;;;2.80;;
34234;SDS011;20500;49.856;20.290;2024-03-23T12:50:10;7.70;;;2.70;;
34234;SDS011;20500;49.856;20.290;2024-03-23T12:53:19;8.10;;;2.70;;
34234;SDS011;20500;49.856;20.290;2024-03-23T12:56:24;8.50;;;3.10;;
34234;SDS011;20500;49.856;20.290;2024-03-23T12:59:30;8.60;;;2.60;;
34234;SDS011;20500;49.856;20.290;2024-03-23T13:02:37;7.40;;;2.50;;
34234;SDS011;20500;49.856;20.290;2024-03-23T13:05:42;8.80;;;2.70;;
34234;SDS011;20500;49.856;20.290;2024-03-23T13:08:55;7.00;;;2.50;;
34234;SDS011;20500;49.856;20.290;2024-03-23T13:12:00;5.90;;;2.20;;
34234;SDS011;20500;49.856;20.290;2024-03-23T13:15:06;7.40;;;2.40;;
34234;SDS011;20500;49.856;20.290;2024-03-23T13:18:11;8.10;;;3.00;;
34234;SDS011;20500;49.856;20.290;2024-03-23T13:21:16;7.20;;;2.80;;
34234;SDS011;20500;49.856;20.290;2024-03-23T13:24:24;8.60;;;2.70;;
34234;SDS011;20500;49.856;20.290;2024-03-23T13:27:30;7.70;;;2.60;;
34234;SDS011;20500;49.856;20.290;2024-03-23T13:30:35;8.40;;;2.90;;
34234;SDS011;20500;49.856;20.290;2024-03-23T13:33:40;8.60;;;2.90;;
34234;SDS011;20500;49.856;20.290;2024-03-23T13:36:46;9.10;;;3.10;;
34234;SDS011;20500;49.856;20.290;2024-03-23T13:39:52;7.50;;;2.70;;
34234;SDS011;20500;49.856;20.290;2024-03-23T13:42:57;9.60;;;2.60;;
34234;SDS011;20500;49.856;20.290;2024-03-23T13:46:02;7.30;;;2.60;;
34234;SDS011;20500;49.856;20.290;2024-03-23T13:49:07;6.50;;;2.70;;
34234;SDS011;20500;49.856;20.290;2024-03-23T13:52:20;8.10;;;3.10;;
34234;SDS011;20500;49.856;20.290;2024-03-23T13:55:28;7.40;;;2.80;;
34234;SDS011;20500;49.856;20.290;2024-03-23T13:58:33;8.70;;;3.00;;
34234;SDS011;20500;49.856;20.290;2024-03-23T14:01:38;9.10;;;3.10;;
34234;SDS011;20500;49.856;20.290;2024-03-23T14:04:43;9.00;;;3.60;;
34234;SDS011;20500;49.856;20.290;2024-03-23T14:07:48;7.80;;;2.60;;
34234;SDS011;20500;49.856;20.290;2024-03-23T14:10:53;7.80;;;2.90;;
34234;SDS011;20500;49.856;20.290;2024-03-23T14:13:59;10.00;;;2.70;;
34234;SDS011;20500;49.856;20.290;2024-03-23T14:17:05;8.30;;;3.10;;
34234;SDS011;20500;49.856;20.290;2024-03-23T14:20:12;8.60;;;2.90;;
34234;SDS011;20500;49.856;20.290;2024-03-23T14:23:18;10.10;;;3.20;;
34234;SDS011;20500;49.856;20.290;2024-03-23T14:26:23;8.50;;;2.30;;
34234;SDS011;20500;49.856;20.290;2024-03-23T14:29:28;8.10;;;2.40;;
34234;SDS011;20500;49.856;20.290;2024-03-23T14:32:33;6.60;;;2.60;;
34234;SDS011;20500;49.856;20.290;2024-03-23T14:35:39;8.00;;;3.00;;
34234;SDS011;20500;49.856;20.290;2024-03-23T14:38:48;7.60;;;2.40;;
34234;SDS011;20500;49.856;20.290;2024-03-23T14:41:53;7.90;;;3.00;;
34234;SDS011;20500;49.856;20.290;2024-03-23T14:44:58;9.90;;;3.20;;
34234;SDS011;20500;49.856;20.290;2024-03-23T14:48:04;7.80;;;2.70;;
34234;SDS011;20500;49.856;20.290;2024-03-23T14:51:10;9.20;;;2.40;;
34234;SDS011;20500;49.856;20.290;2024-03-23T14:54:15;7.00;;;2.50;;
34234;SDS011;20500;49.856;20.290;2024-03-23T14:57:21;5.70;;;2.20;;
34234;SDS011;20500;49.856;20.290;2024-03-23T15:00:26;7.80;;;2.30;;
34234;SDS011;20500;49.856;20.290;2024-03-23T15:03:31;8.90;;;3.20;;
34234;SDS011;20500;49.856;20.290;2024-03-23T15:06:36;11.50;;;2.90;;
34234;SDS011;20500;49.856;20.290;2024-03-23T15:09:41;7.80;;;2.30;;
34234;SDS011;20500;49.856;20.290;2024-03-23T15:12:46;8.00;;;2.30;;
34234;SDS011;20500;49.856;20.290;2024-03-23T15:15:52;6.40;;;1.30;;
34234;SDS011;20500;49.856;20.290;2024-03-23T15:18:56;4.90;;;1.50;;
34234;SDS011;20500;49.856;20.290;2024-03-23T15:22:03;3.40;;;1.20;;
34234;SDS011;20500;49.856;20.290;2024-03-23T15:25:09;2.50;;;0.90;;
34234;SDS011;20500;49.856;20.290;2024-03-23T15:28:15;4.60;;;1.10;;
34234;SDS011;20500;49.856;20.290;2024-03-23T15:31:20;4.70;;;1.40;;
34234;SDS011;20500;49.856;20.290;2024-03-23T15:34:25;4.70;;;1.10;;
34234;SDS011;20500;49.856;20.290;2024-03-23T15:37:30;3.70;;;1.40;;
34234;SDS011;20500;49.856;20.290;2024-03-23T15:40:37;4.30;;;1.50;;
34234;SDS011;20500;49.856;20.290;2024-03-23T15:43:42;3.90;;;1.40;;
34234;SDS011;20500;49.856;20.290;2024-03-23T15:46:47;6.10;;;1.80;;
34234;SDS011;20500;49.856;20.290;2024-03-23T15:49:52;5.80;;;1.80;;
34234;SDS011;20500;49.856;20.290;2024-03-23T15:56:02;5.00;;;1.60;;
34234;SDS011;20500;49.856;20.290;2024-03-23T15:59:09;5.10;;;1.60;;
34234;SDS011;20500;49.856;20.290;2024-03-23T16:02:14;6.80;;;2.00;;
34234;SDS011;20500;49.856;20.290;2024-03-23T16:05:19;5.10;;;1.70;;
34234;SDS011;20500;49.856;20.290;2024-03-23T16:08:24;5.90;;;2.00;;
34234;SDS011;20500;49.856;20.290;2024-03-23T16:11:29;6.40;;;2.20;;
34234;SDS011;20500;49.856;20.290;2024-03-23T16:14:34;6.60;;;1.90;;
34234;SDS011;20500;49.856;20.290;2024-03-23T16:17:40;5.40;;;1.90;;
34234;SDS011;20500;49.856;20.290;2024-03-23T16:20:52;7.20;;;1.90;;
34234;SDS011;20500;49.856;20.290;2024-03-23T16:23:58;6.90;;;2.30;;
34234;SDS011;20500;49.856;20.290;2024-03-23T16:27:03;6.60;;;2.10;;
34234;SDS011;20500;49.856;20.290;2024-03-23T16:30:10;6.80;;;2.00;;
34234;SDS011;20500;49.856;20.290;2024-03-23T16:33:18;6.40;;;1.90;;
34234;SDS011;20500;49.856;20.290;2024-03-23T16:36:23;5.50;;;1.80;;
34234;SDS011;20500;49.856;20.290;2024-03-23T16:39:28;4.20;;;1.70;;
34234;SDS011;20500;49.856;20.290;2024-03-23T16:42:33;6.50;;;1.90;;
34234;SDS011;20500;49.856;20.290;2024-03-23T16:45:39;6.10;;;1.80;;
34234;SDS011;20500;49.856;20.290;2024-03-23T16:48:44;5.50;;;2.00;;
34234;SDS011;20500;49.856;20.290;2024-03-23T16:51:49;7.00;;;1.80;;
34234;SDS011;20500;49.856;20.290;2024-03-23T16:54:55;8.50;;;2.80;;
34234;SDS011;20500;49.856;20.290;2024-03-23T16:58:00;8.40;;;2.90;;
34234;SDS011;20500;49.856;20.290;2024-03-23T17:01:05;7.70;;;2.90;;
34234;SDS011;20500;49.856;20.290;2024-03-23T17:04:14;8.40;;;2.70;;
34234;SDS011;20500;49.856;20.290;2024-03-23T17:07:19;11.30;;;3.60;;
34234;SDS011;20500;49.856;20.290;2024-03-23T17:10:24;10.10;;;4.30;;
34234;SDS011;20500;49.856;20.290;2024-03-23T17:13:29;9.10;;;3.10;;
34234;SDS011;20500;49.856;20.290;2024-03-23T17:16:34;9.10;;;2.90;;
34234;SDS011;20500;49.856;20.290;2024-03-23T17:19:39;9.60;;;3.70;;
34234;SDS011;20500;49.856;20.290;2024-03-23T17:22:44;9.40;;;3.60;;
34234;SDS011;20500;49.856;20.290;2024-03-23T17:25:52;12.20;;;4.80;;
34234;SDS011;20500;49.856;20.290;2024-03-23T17:28:57;10.60;;;3.60;;
34234;SDS011;20500;49.856;20.290;2024-03-23T17:32:02;11.00;;;4.40;;
34234;SDS011;20500;49.856;20.290;2024-03-23T17:35:08;14.20;;;6.10;;
34234;SDS011;20500;49.856;20.290;2024-03-23T17:38:14;15.90;;;7.60;;
34234;SDS011;20500;49.856;20.290;2024-03-23T17:41:19;17.80;;;8.70;;
34234;SDS011;20500;49.856;20.290;2024-03-23T17:44:24;14.20;;;7.20;;
34234;SDS011;20500;49.856;20.290;2024-03-23T17:47:32;13.00;;;6.30;;
34234;SDS011;20500;49.856;20.290;2024-03-23T17:50:39;13.20;;;5.50;;
34234;SDS011;20500;49.856;20.290;2024-03-23T17:53:44;10.80;;;4.40;;
34234;SDS011;20500;49.856;20.290;2024-03-23T17:56:49;10.70;;;4.10;;
34234;SDS011;20500;49.856;20.290;2024-03-23T17:59:55;10.40;;;4.10;;
34234;SDS011;20500;49.856;20.290;2024-03-23T18:03:00;9.50;;;3.50;;
34234;SDS011;20500;49.856;20.290;2024-03-23T18:09:10;9.40;;;3.40;;
34234;SDS011;20500;49.856;20.290;2024-03-23T18:12:15;8.90;;;3.30;;
34234;SDS011;20500;49.856;20.290;2024-03-23T18:15:20;10.70;;;3.40;;
34234;SDS011;20500;49.856;20.290;2024-03-23T18:18:28;9.60;;;3.20;;
34234;SDS011;20500;49.856;20.290;2024-03-23T18:21:33;9.40;;;4.00;;
34234;SDS011;20500;49.856;20.290;2024-03-23T18:24:38;11.30;;;3.70;;
34234;SDS011;20500;49.856;20.290;2024-03-23T18:27:43;9.40;;;3.00;;
34234;SDS011;20500;49.856;20.290;2024-03-23T18:30:56;10.00;;;2.90;;
34234;SDS011;20500;49.856;20.290;2024-03-23T18:34:01;7.20;;;2.50;;
34234;SDS011;20500;49.856;20.290;2024-03-23T18:37:06;8.30;;;2.50;;
34234;SDS011;20500;49.856;20.290;2024-03-23T18:40:12;6.40;;;2.20;;
34234;SDS011;20500;49.856;20.290;2024-03-23T18:43:17;7.70;;;3.00;;
34234;SDS011;20500;49.856;20.290;2024-03-23T18:46:22;7.40;;;2.00;;
34234;SDS011;20500;49.856;20.290;2024-03-23T18:49:28;8.80;;;3.10;;
34234;SDS011;20500;49.856;20.290;2024-03-23T18:52:33;5.10;;;1.90;;
34234;SDS011;20500;49.856;20.290;2024-03-23T18:55:38;5.90;;;2.10;;
34234;SDS011;20500;49.856;20.290;2024-03-23T18:58:45;8.00;;;2.70;;
34234;SDS011;20500;49.856;20.290;2024-03-23T19:01:50;8.70;;;2.90;;
34234;SDS011;20500;49.856;20.290;2024-03-23T19:04:55;6.50;;;2.70;;
34234;SDS011;20500;49.856;20.290;2024-03-23T19:08:01;8.00;;;2.50;;
34234;SDS011;20500;49.856;20.290;2024-03-23T19:11:07;7.20;;;2.50;;
34234;SDS011;20500;49.856;20.290;2024-03-23T19:14:12;8.60;;;2.90;;
34234;SDS011;20500;49.856;20.290;2024-03-23T19:17:17;8.70;;;2.60;;
34234;SDS011;20500;49.856;20.290;2024-03-23T19:20:22;8.30;;;3.10;;
34234;SDS011;20500;49.856;20.290;2024-03-23T19:23:27;10.40;;;3.60;;
34234;SDS011;20500;49.856;20.290;2024-03-23T19:26:32;8.00;;;3.10;;
34234;SDS011;20500;49.856;20.290;2024-03-23T19:29:37;10.20;;;4.00;;
34234;SDS011;20500;49.856;20.290;2024-03-23T19:32:42;11.00;;;5.00;;
34234;SDS011;20500;49.856;20.290;2024-03-23T19:35:55;8.70;;;3.40;;
34234;SDS011;20500;49.856;20.290;2024-03-23T19:39:00;9.60;;;3.90;;